sensor_id;sensor_type;location;lat;lon;timestamp;P1;durP1;ratioP1;P2;durP2;ratioP2
26536;SDS011;14204;51.262;5.488;2023-02-21T00:01:28;45.10;;;26.27;;
26536;SDS011;14204;51.262;5.488;2023-02-21T00:04:12;45.38;;;27.85;;
26536;SDS011;14204;51.262;5.488;2023-02-21T00:06:56;40.92;;;24.92;;
26536;SDS011;14204;51.262;5.488;2023-02-21T00:09:40;42.60;;;25.88;;
26536;SDS011;14204;51.262;5.488;2023-02-21T00:12:24;51.08;;;27.95;;
26536;SDS011;14204;51.262;5.488;2023-02-21T00:15:09;45.20;;;27.85;;
26536;SDS011;14204;51.262;5.488;2023-02-21T00:17:53;48.75;;;29.88;;
26536;SDS011;14204;51.262;5.488;2023-02-21T00:20:37;45.30;;;28.38;;
26536;SDS011;14204;51.262;5.488;2023-02-21T00:23:21;51.42;;;27.90;;
26536;SDS011;14204;51.262;5.488;2023-02-21T00:26:05;49.95;;;29.00;;
26536;SDS011;14204;51.262;5.488;2023-02-21T00:28:49;50.08;;;30.42;;
26536;SDS011;14204;51.262;5.488;2023-02-21T00:31:33;46.15;;;27.70;;
26536;SDS011;14204;51.262;5.488;2023-02-21T00:34:17;51.40;;;29.45;;
26536;SDS011;14204;51.262;5.488;2023-02-21T00:37:01;55.75;;;30.77;;
26536;SDS011;14204;51.262;5.488;2023-02-21T00:39:46;51.47;;;29.48;;
26536;SDS011;14204;51.262;5.488;2023-02-21T00:42:30;52.13;;;29.52;;
26536;SDS011;14204;51.262;5.488;2023-02-21T00:45:14;50.03;;;29.65;;
26536;SDS011;14204;51.262;5.488;2023-02-21T00:47:59;48.03;;;29.83;;
26536;SDS011;14204;51.262;5.488;2023-02-21T00:50:43;51.45;;;29.50;;
26536;SDS011;14204;51.262;5.488;2023-02-21T00:53:27;52.95;;;30.35;;
26536;SDS011;14204;51.262;5.488;2023-02-21T00:56:11;49.33;;;26.88;;
26536;SDS011;14204;51.262;5.488;2023-02-21T00:58:55;49.38;;;29.92;;
26536;SDS011;14204;51.262;5.488;2023-02-21T01:01:39;57.42;;;32.88;;
26536;SDS011;14204;51.262;5.488;2023-02-21T01:04:23;52.33;;;30.05;;
26536;SDS011;14204;51.262;5.488;2023-02-21T01:07:07;50.72;;;29.08;;
26536;SDS011;14204;51.262;5.488;2023-02-21T01:09:51;52.40;;;30.88;;
26536;SDS011;14204;51.262;5.488;2023-02-21T01:12:35;54.00;;;30.27;;
26536;SDS011;14204;51.262;5.488;2023-02-21T01:15:19;56.28;;;30.70;;
26536;SDS011;14204;51.262;5.488;2023-02-21T01:18:03;53.40;;;31.08;;
26536;SDS011;14204;51.262;5.488;2023-02-21T01:20:48;55.80;;;31.38;;
26536;SDS011;14204;51.262;5.488;2023-02-21T01:23:32;58.70;;;31.70;;
26536;SDS011;14204;51.262;5.488;2023-02-21T01:26:17;64.97;;;35.40;;
26536;SDS011;14204;51.262;5.488;2023-02-21T01:29:01;61.42;;;34.70;;
26536;SDS011;14204;51.262;5.488;2023-02-21T01:31:46;65.68;;;34.22;;
26536;SDS011;14204;51.262;5.488;2023-02-21T01:34:32;55.10;;;31.52;;
26536;SDS011;14204;51.262;5.488;2023-02-21T01:37:16;66.28;;;33.90;;
26536;SDS011;14204;51.262;5.488;2023-02-21T01:40:00;61.83;;;33.03;;
26536;SDS011;14204;51.262;5.488;2023-02-21T01:42:44;71.15;;;34.30;;
26536;SDS011;14204;51.262;5.488;2023-02-21T01:45:37;65.55;;;33.67;;
26536;SDS011;14204;51.262;5.488;2023-02-21T01:48:28;61.67;;;33.53;;
26536;SDS011;14204;51.262;5.488;2023-02-21T01:51:15;63.50;;;32.78;;
26536;SDS011;14204;51.262;5.488;2023-02-21T01:54:02;64.10;;;32.33;;
26536;SDS011;14204;51.262;5.488;2023-02-21T01:56:48;65.18;;;34.33;;
26536;SDS011;14204;51.262;5.488;2023-02-21T01:59:32;65.07;;;33.97;;
26536;SDS011;14204;51.262;5.488;2023-02-21T02:02:18;59.85;;;33.13;;
26536;SDS011;14204;51.262;5.488;2023-02-21T02:05:08;71.28;;;36.92;;
26536;SDS011;14204;51.262;5.488;2023-02-21T02:07:54;65.03;;;34.28;;
26536;SDS011;14204;51.262;5.488;2023-02-21T02:10:38;67.43;;;33.13;;
26536;SDS011;14204;51.262;5.488;2023-02-21T02:27:46;62.72;;;32.75;;
26536;SDS011;14204;51.262;5.488;2023-02-21T02:34:05;68.70;;;32.58;;
26536;SDS011;14204;51.262;5.488;2023-02-21T02:42:01;72.88;;;33.47;;
26536;SDS011;14204;51.262;5.488;2023-02-21T02:44:27;76.00;;;35.97;;
26536;SDS011;14204;51.262;5.488;2023-02-21T02:49:26;64.60;;;31.65;;
26536;SDS011;14204;51.262;5.488;2023-02-21T02:51:53;68.55;;;31.80;;
26536;SDS011;14204;51.262;5.488;2023-02-21T02:54:20;75.88;;;35.67;;
26536;SDS011;14204;51.262;5.488;2023-02-21T02:56:46;73.28;;;34.70;;
26536;SDS011;14204;51.262;5.488;2023-02-21T02:59:22;77.55;;;37.00;;
26536;SDS011;14204;51.262;5.488;2023-02-21T03:01:56;71.68;;;32.92;;
26536;SDS011;14204;51.262;5.488;2023-02-21T03:07:44;72.25;;;32.28;;
26536;SDS011;14204;51.262;5.488;2023-02-21T03:10:22;73.88;;;34.25;;
26536;SDS011;14204;51.262;5.488;2023-02-21T03:15:28;88.47;;;35.47;;
26536;SDS011;14204;51.262;5.488;2023-02-21T03:18:02;87.00;;;34.92;;
26536;SDS011;14204;51.262;5.488;2023-02-21T03:20:33;85.78;;;36.20;;
26536;SDS011;14204;51.262;5.488;2023-02-21T03:23:01;93.97;;;37.08;;
26536;SDS011;14204;51.262;5.488;2023-02-21T03:25:28;83.47;;;36.00;;
26536;SDS011;14204;51.262;5.488;2023-02-21T03:27:57;98.35;;;37.72;;
26536;SDS011;14204;51.262;5.488;2023-02-21T03:30:24;97.80;;;39.40;;
26536;SDS011;14204;51.262;5.488;2023-02-21T03:32:51;86.28;;;35.78;;
26536;SDS011;14204;51.262;5.488;2023-02-21T03:35:18;95.13;;;37.15;;
26536;SDS011;14204;51.262;5.488;2023-02-21T03:37:48;82.88;;;34.13;;
26536;SDS011;14204;51.262;5.488;2023-02-21T03:40:23;112.45;;;39.17;;
26536;SDS011;14204;51.262;5.488;2023-02-21T03:42:57;78.70;;;35.70;;
26536;SDS011;14204;51.262;5.488;2023-02-21T03:45:24;88.18;;;35.00;;
26536;SDS011;14204;51.262;5.488;2023-02-21T03:47:49;82.63;;;36.38;;
26536;SDS011;14204;51.262;5.488;2023-02-21T03:50:15;117.75;;;40.00;;
26536;SDS011;14204;51.262;5.488;2023-02-21T03:52:41;90.53;;;36.45;;
26536;SDS011;14204;51.262;5.488;2023-02-21T03:55:07;108.95;;;38.38;;
26536;SDS011;14204;51.262;5.488;2023-02-21T03:57:33;105.68;;;39.00;;
26536;SDS011;14204;51.262;5.488;2023-02-21T03:59:59;99.97;;;37.65;;
26536;SDS011;14204;51.262;5.488;2023-02-21T04:02:25;82.38;;;35.60;;
26536;SDS011;14204;51.262;5.488;2023-02-21T04:04:51;97.32;;;37.65;;
26536;SDS011;14204;51.262;5.488;2023-02-21T04:07:17;93.50;;;37.92;;
26536;SDS011;14204;51.262;5.488;2023-02-21T04:09:44;104.70;;;38.35;;
26536;SDS011;14204;51.262;5.488;2023-02-21T04:12:10;91.78;;;35.78;;
26536;SDS011;14204;51.262;5.488;2023-02-21T04:14:36;93.75;;;38.03;;
26536;SDS011;14204;51.262;5.488;2023-02-21T04:17:03;110.53;;;39.50;;
26536;SDS011;14204;51.262;5.488;2023-02-21T04:19:29;83.57;;;34.55;;
26536;SDS011;14204;51.262;5.488;2023-02-21T04:21:54;114.85;;;40.92;;
26536;SDS011;14204;51.262;5.488;2023-02-21T04:24:20;104.25;;;38.67;;
26536;SDS011;14204;51.262;5.488;2023-02-21T04:26:45;119.13;;;39.08;;
26536;SDS011;14204;51.262;5.488;2023-02-21T04:29:11;87.25;;;34.80;;
26536;SDS011;14204;51.262;5.488;2023-02-21T04:31:37;95.35;;;38.25;;
26536;SDS011;14204;51.262;5.488;2023-02-21T04:34:02;119.65;;;40.95;;
26536;SDS011;14204;51.262;5.488;2023-02-21T04:36:28;95.72;;;36.15;;
26536;SDS011;14204;51.262;5.488;2023-02-21T04:38:55;89.95;;;35.78;;
26536;SDS011;14204;51.262;5.488;2023-02-21T04:41:21;118.82;;;39.92;;
26536;SDS011;14204;51.262;5.488;2023-02-21T04:43:47;93.85;;;35.00;;
26536;SDS011;14204;51.262;5.488;2023-02-21T04:46:13;101.57;;;35.75;;
26536;SDS011;14204;51.262;5.488;2023-02-21T04:48:41;88.32;;;35.05;;
26536;SDS011;14204;51.262;5.488;2023-02-21T04:51:11;85.97;;;34.10;;
26536;SDS011;14204;51.262;5.488;2023-02-21T04:53:37;76.15;;;32.38;;
26536;SDS011;14204;51.262;5.488;2023-02-21T04:56:03;105.38;;;36.13;;
26536;SDS011;14204;51.262;5.488;2023-02-21T04:58:29;95.03;;;34.63;;
26536;SDS011;14204;51.262;5.488;2023-02-21T05:00:54;78.80;;;32.00;;
26536;SDS011;14204;51.262;5.488;2023-02-21T05:03:20;96.18;;;34.63;;
26536;SDS011;14204;51.262;5.488;2023-02-21T05:05:46;86.90;;;32.03;;
26536;SDS011;14204;51.262;5.488;2023-02-21T05:08:11;97.90;;;33.85;;
26536;SDS011;14204;51.262;5.488;2023-02-21T05:10:37;85.93;;;32.65;;
26536;SDS011;14204;51.262;5.488;2023-02-21T05:13:03;86.07;;;33.50;;
26536;SDS011;14204;51.262;5.488;2023-02-21T05:15:29;84.07;;;32.88;;
26536;SDS011;14204;51.262;5.488;2023-02-21T05:17:55;103.35;;;34.58;;
26536;SDS011;14204;51.262;5.488;2023-02-21T05:20:20;92.38;;;33.50;;
26536;SDS011;14204;51.262;5.488;2023-02-21T05:22:47;115.90;;;36.60;;
26536;SDS011;14204;51.262;5.488;2023-02-21T05:25:21;95.72;;;33.95;;
26536;SDS011;14204;51.262;5.488;2023-02-21T05:27:47;89.90;;;31.77;;
26536;SDS011;14204;51.262;5.488;2023-02-21T05:30:15;73.75;;;30.10;;
26536;SDS011;14204;51.262;5.488;2023-02-21T05:32:43;105.43;;;36.60;;
26536;SDS011;14204;51.262;5.488;2023-02-21T05:35:09;105.57;;;35.65;;
26536;SDS011;14204;51.262;5.488;2023-02-21T05:37:37;79.72;;;30.52;;
26536;SDS011;14204;51.262;5.488;2023-02-21T05:40:03;88.53;;;32.53;;
26536;SDS011;14204;51.262;5.488;2023-02-21T05:42:29;88.53;;;32.78;;
26536;SDS011;14204;51.262;5.488;2023-02-21T05:44:55;86.57;;;31.45;;
26536;SDS011;14204;51.262;5.488;2023-02-21T05:47:21;76.95;;;29.15;;
26536;SDS011;14204;51.262;5.488;2023-02-21T05:49:46;79.13;;;30.88;;
26536;SDS011;14204;51.262;5.488;2023-02-21T05:52:13;66.97;;;27.95;;
26536;SDS011;14204;51.262;5.488;2023-02-21T05:54:40;83.15;;;29.98;;
26536;SDS011;14204;51.262;5.488;2023-02-21T05:57:06;79.57;;;28.88;;
26536;SDS011;14204;51.262;5.488;2023-02-21T05:59:32;68.50;;;28.10;;
26536;SDS011;14204;51.262;5.488;2023-02-21T06:01:58;66.40;;;26.17;;
26536;SDS011;14204;51.262;5.488;2023-02-21T06:04:23;77.53;;;27.40;;
26536;SDS011;14204;51.262;5.488;2023-02-21T06:06:49;90.55;;;31.42;;
26536;SDS011;14204;51.262;5.488;2023-02-21T06:09:15;73.18;;;28.85;;
26536;SDS011;14204;51.262;5.488;2023-02-21T06:11:43;68.07;;;26.50;;
26536;SDS011;14204;51.262;5.488;2023-02-21T06:14:13;77.43;;;27.83;;
26536;SDS011;14204;51.262;5.488;2023-02-21T06:16:41;87.90;;;31.85;;
26536;SDS011;14204;51.262;5.488;2023-02-21T06:19:07;67.50;;;27.08;;
26536;SDS011;14204;51.262;5.488;2023-02-21T06:21:33;61.53;;;26.02;;
26536;SDS011;14204;51.262;5.488;2023-02-21T06:24:02;68.82;;;28.70;;
26536;SDS011;14204;51.262;5.488;2023-02-21T06:26:28;92.32;;;31.55;;
26536;SDS011;14204;51.262;5.488;2023-02-21T06:28:54;74.30;;;28.90;;
26536;SDS011;14204;51.262;5.488;2023-02-21T06:31:20;89.47;;;29.40;;
26536;SDS011;14204;51.262;5.488;2023-02-21T06:33:46;82.00;;;29.92;;
26536;SDS011;14204;51.262;5.488;2023-02-21T06:36:17;68.45;;;28.70;;
26536;SDS011;14204;51.262;5.488;2023-02-21T06:38:46;68.70;;;27.77;;
26536;SDS011;14204;51.262;5.488;2023-02-21T06:41:14;72.85;;;28.67;;
26536;SDS011;14204;51.262;5.488;2023-02-21T06:43:41;77.57;;;29.10;;
26536;SDS011;14204;51.262;5.488;2023-02-21T06:46:07;71.70;;;30.08;;
26536;SDS011;14204;51.262;5.488;2023-02-21T06:48:33;92.68;;;32.08;;
26536;SDS011;14204;51.262;5.488;2023-02-21T06:50:58;83.40;;;30.65;;
26536;SDS011;14204;51.262;5.488;2023-02-21T06:53:24;70.93;;;29.65;;
26536;SDS011;14204;51.262;5.488;2023-02-21T06:55:50;92.97;;;32.47;;
26536;SDS011;14204;51.262;5.488;2023-02-21T06:58:16;68.70;;;28.25;;
26536;SDS011;14204;51.262;5.488;2023-02-21T07:00:41;86.22;;;30.42;;
26536;SDS011;14204;51.262;5.488;2023-02-21T07:03:07;73.35;;;29.52;;
26536;SDS011;14204;51.262;5.488;2023-02-21T07:05:32;71.78;;;28.13;;
26536;SDS011;14204;51.262;5.488;2023-02-21T07:07:58;78.85;;;28.25;;
26536;SDS011;14204;51.262;5.488;2023-02-21T07:10:25;73.88;;;26.63;;
26536;SDS011;14204;51.262;5.488;2023-02-21T07:12:51;84.32;;;27.98;;
26536;SDS011;14204;51.262;5.488;2023-02-21T07:15:17;57.42;;;25.75;;
26536;SDS011;14204;51.262;5.488;2023-02-21T07:17:42;71.28;;;27.13;;
26536;SDS011;14204;51.262;5.488;2023-02-21T07:20:08;59.42;;;25.50;;
26536;SDS011;14204;51.262;5.488;2023-02-21T07:22:34;76.40;;;27.83;;
26536;SDS011;14204;51.262;5.488;2023-02-21T07:24:59;76.70;;;25.85;;
26536;SDS011;14204;51.262;5.488;2023-02-21T07:27:25;56.70;;;24.33;;
26536;SDS011;14204;51.262;5.488;2023-02-21T07:29:50;56.47;;;23.30;;
26536;SDS011;14204;51.262;5.488;2023-02-21T07:32:16;68.90;;;26.42;;
26536;SDS011;14204;51.262;5.488;2023-02-21T07:34:42;60.17;;;24.60;;
26536;SDS011;14204;51.262;5.488;2023-02-21T07:37:08;55.85;;;22.73;;
26536;SDS011;14204;51.262;5.488;2023-02-21T07:39:34;60.13;;;23.83;;
26536;SDS011;14204;51.262;5.488;2023-02-21T07:41:59;51.85;;;23.15;;
26536;SDS011;14204;51.262;5.488;2023-02-21T07:44:25;56.33;;;23.63;;
26536;SDS011;14204;51.262;5.488;2023-02-21T07:46:51;48.25;;;21.83;;
26536;SDS011;14204;51.262;5.488;2023-02-21T07:49:16;46.97;;;19.58;;
26536;SDS011;14204;51.262;5.488;2023-02-21T07:51:42;54.17;;;21.75;;
26536;SDS011;14204;51.262;5.488;2023-02-21T07:54:08;49.22;;;21.02;;
26536;SDS011;14204;51.262;5.488;2023-02-21T07:56:33;46.15;;;20.58;;
26536;SDS011;14204;51.262;5.488;2023-02-21T07:58:59;49.58;;;22.38;;
26536;SDS011;14204;51.262;5.488;2023-02-21T08:01:25;58.38;;;23.55;;
26536;SDS011;14204;51.262;5.488;2023-02-21T08:03:51;51.00;;;20.50;;
26536;SDS011;14204;51.262;5.488;2023-02-21T08:06:16;52.88;;;22.00;;
26536;SDS011;14204;51.262;5.488;2023-02-21T08:08:43;49.90;;;21.67;;
26536;SDS011;14204;51.262;5.488;2023-02-21T08:11:09;42.90;;;20.45;;
26536;SDS011;14204;51.262;5.488;2023-02-21T08:13:35;43.95;;;20.15;;
26536;SDS011;14204;51.262;5.488;2023-02-21T08:16:01;43.50;;;20.75;;
26536;SDS011;14204;51.262;5.488;2023-02-21T08:18:27;41.67;;;20.38;;
26536;SDS011;14204;51.262;5.488;2023-02-21T08:20:53;41.55;;;19.42;;
26536;SDS011;14204;51.262;5.488;2023-02-21T08:23:20;43.05;;;18.83;;
26536;SDS011;14204;51.262;5.488;2023-02-21T08:25:47;41.88;;;19.65;;
26536;SDS011;14204;51.262;5.488;2023-02-21T08:28:13;41.15;;;17.60;;
26536;SDS011;14204;51.262;5.488;2023-02-21T08:30:40;38.65;;;17.75;;
26536;SDS011;14204;51.262;5.488;2023-02-21T08:33:06;37.03;;;16.50;;
26536;SDS011;14204;51.262;5.488;2023-02-21T08:35:31;35.88;;;16.80;;
26536;SDS011;14204;51.262;5.488;2023-02-21T08:37:57;36.53;;;16.67;;
26536;SDS011;14204;51.262;5.488;2023-02-21T08:40:26;36.65;;;14.90;;
26536;SDS011;14204;51.262;5.488;2023-02-21T08:42:53;35.63;;;16.17;;
26536;SDS011;14204;51.262;5.488;2023-02-21T08:45:20;34.63;;;15.85;;
26536;SDS011;14204;51.262;5.488;2023-02-21T08:47:46;32.03;;;16.08;;
26536;SDS011;14204;51.262;5.488;2023-02-21T08:50:13;30.75;;;14.57;;
26536;SDS011;14204;51.262;5.488;2023-02-21T08:52:38;29.65;;;15.07;;
26536;SDS011;14204;51.262;5.488;2023-02-21T08:55:07;33.03;;;15.43;;
26536;SDS011;14204;51.262;5.488;2023-02-21T08:57:33;27.52;;;14.77;;
26536;SDS011;14204;51.262;5.488;2023-02-21T08:59:59;30.83;;;14.68;;
26536;SDS011;14204;51.262;5.488;2023-02-21T09:02:25;27.17;;;13.15;;
26536;SDS011;14204;51.262;5.488;2023-02-21T09:04:52;24.38;;;12.90;;
26536;SDS011;14204;51.262;5.488;2023-02-21T09:07:19;24.10;;;13.00;;
26536;SDS011;14204;51.262;5.488;2023-02-21T09:09:46;24.02;;;11.93;;
26536;SDS011;14204;51.262;5.488;2023-02-21T09:12:12;23.98;;;12.98;;
26536;SDS011;14204;51.262;5.488;2023-02-21T09:14:39;22.75;;;12.20;;
26536;SDS011;14204;51.262;5.488;2023-02-21T09:17:07;26.83;;;13.15;;
26536;SDS011;14204;51.262;5.488;2023-02-21T09:19:35;21.80;;;11.35;;
26536;SDS011;14204;51.262;5.488;2023-02-21T09:22:02;21.50;;;11.52;;
26536;SDS011;14204;51.262;5.488;2023-02-21T09:24:31;19.75;;;10.52;;
26536;SDS011;14204;51.262;5.488;2023-02-21T09:26:57;19.58;;;9.93;;
26536;SDS011;14204;51.262;5.488;2023-02-21T09:29:27;18.58;;;9.95;;
26536;SDS011;14204;51.262;5.488;2023-02-21T09:31:58;18.50;;;10.55;;
26536;SDS011;14204;51.262;5.488;2023-02-21T09:34:24;18.95;;;9.80;;
26536;SDS011;14204;51.262;5.488;2023-02-21T09:36:50;17.77;;;9.63;;
26536;SDS011;14204;51.262;5.488;2023-02-21T09:39:16;16.45;;;9.32;;
26536;SDS011;14204;51.262;5.488;2023-02-21T09:41:42;15.35;;;9.05;;
26536;SDS011;14204;51.262;5.488;2023-02-21T09:44:09;16.92;;;9.18;;
26536;SDS011;14204;51.262;5.488;2023-02-21T09:46:44;17.60;;;9.98;;
26536;SDS011;14204;51.262;5.488;2023-02-21T09:49:15;17.73;;;9.65;;
26536;SDS011;14204;51.262;5.488;2023-02-21T09:51:57;17.42;;;9.60;;
26536;SDS011;14204;51.262;5.488;2023-02-21T09:56:58;16.50;;;8.85;;
26536;SDS011;14204;51.262;5.488;2023-02-21T09:59:25;15.90;;;9.38;;
26536;SDS011;14204;51.262;5.488;2023-02-21T10:01:54;18.35;;;10.38;;
26536;SDS011;14204;51.262;5.488;2023-02-21T10:07:42;17.17;;;9.20;;
26536;SDS011;14204;51.262;5.488;2023-02-21T10:10:28;18.75;;;10.32;;
26536;SDS011;14204;51.262;5.488;2023-02-21T10:13:06;13.45;;;8.27;;
26536;SDS011;14204;51.262;5.488;2023-02-21T10:15:44;30.92;;;25.38;;
26536;SDS011;14204;51.262;5.488;2023-02-21T10:18:18;14.70;;;8.88;;
26536;SDS011;14204;51.262;5.488;2023-02-21T10:20:59;15.80;;;9.43;;
26536;SDS011;14204;51.262;5.488;2023-02-21T10:23:44;17.95;;;9.70;;
26536;SDS011;14204;51.262;5.488;2023-02-21T10:26:13;17.15;;;9.45;;
26536;SDS011;14204;51.262;5.488;2023-02-21T10:28:44;16.85;;;9.05;;
26536;SDS011;14204;51.262;5.488;2023-02-21T10:31:11;16.05;;;8.82;;
26536;SDS011;14204;51.262;5.488;2023-02-21T10:33:42;15.05;;;8.73;;
26536;SDS011;14204;51.262;5.488;2023-02-21T10:36:18;15.02;;;9.07;;
26536;SDS011;14204;51.262;5.488;2023-02-21T10:41:46;16.05;;;9.18;;
26536;SDS011;14204;51.262;5.488;2023-02-21T10:44:15;18.40;;;9.48;;
26536;SDS011;14204;51.262;5.488;2023-02-21T10:46:46;21.10;;;11.27;;
26536;SDS011;14204;51.262;5.488;2023-02-21T10:49:24;20.75;;;11.32;;
26536;SDS011;14204;51.262;5.488;2023-02-21T10:54:34;15.38;;;9.48;;
26536;SDS011;14204;51.262;5.488;2023-02-21T10:57:00;21.27;;;10.93;;
26536;SDS011;14204;51.262;5.488;2023-02-21T10:59:32;19.10;;;11.98;;
26536;SDS011;14204;51.262;5.488;2023-02-21T11:02:08;19.10;;;12.07;;
26536;SDS011;14204;51.262;5.488;2023-02-21T11:04:51;20.95;;;12.00;;
26536;SDS011;14204;51.262;5.488;2023-02-21T11:07:19;21.38;;;10.70;;
26536;SDS011;14204;51.262;5.488;2023-02-21T11:09:47;18.27;;;11.25;;
26536;SDS011;14204;51.262;5.488;2023-02-21T11:14:40;16.15;;;9.88;;
26536;SDS011;14204;51.262;5.488;2023-02-21T11:19:48;15.15;;;8.63;;
26536;SDS011;14204;51.262;5.488;2023-02-21T11:22:21;15.38;;;8.98;;
26536;SDS011;14204;51.262;5.488;2023-02-21T11:24:50;23.85;;;9.57;;
26536;SDS011;14204;51.262;5.488;2023-02-21T11:27:23;15.32;;;8.48;;
26536;SDS011;14204;51.262;5.488;2023-02-21T11:29:49;19.00;;;9.65;;
26536;SDS011;14204;51.262;5.488;2023-02-21T11:32:22;14.55;;;8.68;;
26536;SDS011;14204;51.262;5.488;2023-02-21T11:34:48;16.55;;;10.20;;
26536;SDS011;14204;51.262;5.488;2023-02-21T11:37:14;18.08;;;10.43;;
26536;SDS011;14204;51.262;5.488;2023-02-21T11:39:40;19.80;;;11.80;;
26536;SDS011;14204;51.262;5.488;2023-02-21T11:42:24;19.73;;;11.65;;
26536;SDS011;14204;51.262;5.488;2023-02-21T11:45:11;20.52;;;11.23;;
26536;SDS011;14204;51.262;5.488;2023-02-21T11:47:49;17.17;;;10.68;;
26536;SDS011;14204;51.262;5.488;2023-02-21T11:52:59;21.80;;;12.60;;
26536;SDS011;14204;51.262;5.488;2023-02-21T11:55:29;22.48;;;11.93;;
26536;SDS011;14204;51.262;5.488;2023-02-21T12:03:39;26.92;;;14.48;;
26536;SDS011;14204;51.262;5.488;2023-02-21T12:09:22;27.35;;;16.55;;
26536;SDS011;14204;51.262;5.488;2023-02-21T12:12:03;24.85;;;15.15;;
26536;SDS011;14204;51.262;5.488;2023-02-21T12:25:27;34.17;;;19.98;;
26536;SDS011;14204;51.262;5.488;2023-02-21T12:28:08;36.83;;;20.42;;
26536;SDS011;14204;51.262;5.488;2023-02-21T12:47:59;41.58;;;23.92;;
26536;SDS011;14204;51.262;5.488;2023-02-21T12:50:39;43.15;;;25.38;;
26536;SDS011;14204;51.262;5.488;2023-02-21T12:53:11;38.75;;;22.40;;
26536;SDS011;14204;51.262;5.488;2023-02-21T12:55:45;39.72;;;23.23;;
26536;SDS011;14204;51.262;5.488;2023-02-21T12:58:18;35.63;;;21.08;;
26536;SDS011;14204;51.262;5.488;2023-02-21T13:00:54;36.17;;;21.27;;
26536;SDS011;14204;51.262;5.488;2023-02-21T13:03:29;24.40;;;15.23;;
26536;SDS011;14204;51.262;5.488;2023-02-21T13:06:21;24.02;;;15.20;;
26536;SDS011;14204;51.262;5.488;2023-02-21T13:11:31;28.23;;;16.90;;
26536;SDS011;14204;51.262;5.488;2023-02-21T13:14:12;28.85;;;16.50;;
26536;SDS011;14204;51.262;5.488;2023-02-21T13:16:41;31.30;;;17.88;;
26536;SDS011;14204;51.262;5.488;2023-02-21T13:19:08;31.30;;;18.67;;
26536;SDS011;14204;51.262;5.488;2023-02-21T13:24:26;31.55;;;18.70;;
26536;SDS011;14204;51.262;5.488;2023-02-21T13:29:46;31.08;;;17.65;;
26536;SDS011;14204;51.262;5.488;2023-02-21T13:32:14;28.60;;;17.33;;
26536;SDS011;14204;51.262;5.488;2023-02-21T13:37:22;29.63;;;16.27;;
26536;SDS011;14204;51.262;5.488;2023-02-21T13:39:52;24.60;;;13.35;;
26536;SDS011;14204;51.262;5.488;2023-02-21T13:42:25;29.83;;;14.40;;
26536;SDS011;14204;51.262;5.488;2023-02-21T13:45:08;32.45;;;16.08;;
26536;SDS011;14204;51.262;5.488;2023-02-21T13:48:24;29.23;;;14.35;;
26536;SDS011;14204;51.262;5.488;2023-02-21T13:55:36;28.05;;;15.88;;
26536;SDS011;14204;51.262;5.488;2023-02-21T14:03:01;34.00;;;16.23;;
26536;SDS011;14204;51.262;5.488;2023-02-21T14:13:38;27.98;;;13.95;;
26536;SDS011;14204;51.262;5.488;2023-02-21T14:18:45;28.75;;;13.77;;
26536;SDS011;14204;51.262;5.488;2023-02-21T14:21:23;26.27;;;13.60;;
26536;SDS011;14204;51.262;5.488;2023-02-21T14:24:15;27.30;;;13.65;;
26536;SDS011;14204;51.262;5.488;2023-02-21T14:26:43;28.45;;;13.98;;
26536;SDS011;14204;51.262;5.488;2023-02-21T14:29:14;29.85;;;14.00;;
26536;SDS011;14204;51.262;5.488;2023-02-21T14:37:31;31.80;;;15.30;;
26536;SDS011;14204;51.262;5.488;2023-02-21T14:58:39;31.40;;;16.30;;
26536;SDS011;14204;51.262;5.488;2023-02-21T15:04:08;37.03;;;18.05;;
26536;SDS011;14204;51.262;5.488;2023-02-21T15:09:34;34.35;;;16.98;;
26536;SDS011;14204;51.262;5.488;2023-02-21T15:11:59;35.00;;;16.70;;
26536;SDS011;14204;51.262;5.488;2023-02-21T15:14:27;34.63;;;17.35;;
26536;SDS011;14204;51.262;5.488;2023-02-21T15:16:56;36.63;;;16.50;;
26536;SDS011;14204;51.262;5.488;2023-02-21T15:19:34;31.33;;;15.93;;
26536;SDS011;14204;51.262;5.488;2023-02-21T15:27:27;36.58;;;17.40;;
26536;SDS011;14204;51.262;5.488;2023-02-21T15:32:40;37.60;;;17.77;;
26536;SDS011;14204;51.262;5.488;2023-02-21T15:35:09;40.63;;;17.13;;
26536;SDS011;14204;51.262;5.488;2023-02-21T15:37:40;36.83;;;16.98;;
26536;SDS011;14204;51.262;5.488;2023-02-21T15:40:16;41.90;;;18.60;;
26536;SDS011;14204;51.262;5.488;2023-02-21T15:42:47;45.05;;;17.60;;
26536;SDS011;14204;51.262;5.488;2023-02-21T15:45:19;37.28;;;17.13;;
26536;SDS011;14204;51.262;5.488;2023-02-21T15:47:51;40.28;;;18.77;;
26536;SDS011;14204;51.262;5.488;2023-02-21T15:53:24;47.20;;;18.58;;
26536;SDS011;14204;51.262;5.488;2023-02-21T15:55:51;36.67;;;17.23;;
26536;SDS011;14204;51.262;5.488;2023-02-21T15:58:24;43.13;;;17.63;;
26536;SDS011;14204;51.262;5.488;2023-02-21T16:01:07;37.35;;;16.67;;
26536;SDS011;14204;51.262;5.488;2023-02-21T16:19:41;37.45;;;17.02;;
26536;SDS011;14204;51.262;5.488;2023-02-21T16:22:23;32.37;;;14.60;;
26536;SDS011;14204;51.262;5.488;2023-02-21T16:25:12;37.83;;;15.80;;
26536;SDS011;14204;51.262;5.488;2023-02-21T16:27:38;36.45;;;15.18;;
26536;SDS011;14204;51.262;5.488;2023-02-21T16:30:06;38.40;;;15.53;;
26536;SDS011;14204;51.262;5.488;2023-02-21T16:32:36;35.00;;;15.45;;
26536;SDS011;14204;51.262;5.488;2023-02-21T16:35:03;32.97;;;15.57;;
26536;SDS011;14204;51.262;5.488;2023-02-21T16:37:30;35.30;;;15.48;;
26536;SDS011;14204;51.262;5.488;2023-02-21T16:40:00;37.78;;;17.83;;
26536;SDS011;14204;51.262;5.488;2023-02-21T16:42:29;36.03;;;16.63;;
26536;SDS011;14204;51.262;5.488;2023-02-21T16:44:55;39.33;;;18.70;;
26536;SDS011;14204;51.262;5.488;2023-02-21T16:47:21;48.05;;;18.95;;
26536;SDS011;14204;51.262;5.488;2023-02-21T16:49:47;49.08;;;20.83;;
26536;SDS011;14204;51.262;5.488;2023-02-21T16:52:14;41.25;;;18.92;;
26536;SDS011;14204;51.262;5.488;2023-02-21T16:54:41;72.30;;;39.72;;
26536;SDS011;14204;51.262;5.488;2023-02-21T16:57:08;63.25;;;29.35;;
26536;SDS011;14204;51.262;5.488;2023-02-21T16:59:35;45.33;;;19.02;;
26536;SDS011;14204;51.262;5.488;2023-02-21T17:02:01;42.80;;;18.25;;
26536;SDS011;14204;51.262;5.488;2023-02-21T17:04:28;42.38;;;18.05;;
26536;SDS011;14204;51.262;5.488;2023-02-21T17:06:55;42.20;;;17.90;;
26536;SDS011;14204;51.262;5.488;2023-02-21T17:09:26;46.47;;;21.45;;
26536;SDS011;14204;51.262;5.488;2023-02-21T17:11:53;44.08;;;19.73;;
26536;SDS011;14204;51.262;5.488;2023-02-21T17:14:19;46.90;;;18.77;;
26536;SDS011;14204;51.262;5.488;2023-02-21T17:16:45;46.63;;;21.02;;
26536;SDS011;14204;51.262;5.488;2023-02-21T17:19:14;46.00;;;21.73;;
26536;SDS011;14204;51.262;5.488;2023-02-21T17:21:41;48.22;;;20.85;;
26536;SDS011;14204;51.262;5.488;2023-02-21T17:24:07;41.05;;;19.08;;
26536;SDS011;14204;51.262;5.488;2023-02-21T17:26:34;41.20;;;18.58;;
26536;SDS011;14204;51.262;5.488;2023-02-21T17:29:00;37.95;;;19.27;;
26536;SDS011;14204;51.262;5.488;2023-02-21T17:31:26;48.13;;;22.65;;
26536;SDS011;14204;51.262;5.488;2023-02-21T17:33:52;41.47;;;18.40;;
26536;SDS011;14204;51.262;5.488;2023-02-21T17:36:19;48.28;;;22.08;;
26536;SDS011;14204;51.262;5.488;2023-02-21T17:38:45;40.33;;;19.55;;
26536;SDS011;14204;51.262;5.488;2023-02-21T17:41:11;44.67;;;20.08;;